createdAt,value
2023-03-27T00:00:06.857Z,0.70
2023-03-27T00:01:07.050Z,0.60
2023-03-27T00:02:06.913Z,0.60
2023-03-27T00:03:07.052Z,0.60
2023-03-27T00:04:06.964Z,0.40
2023-03-27T00:05:06.802Z,1.10
2023-03-27T00:06:06.797Z,0.60
2023-03-27T00:07:06.845Z,0.50
2023-03-27T00:08:06.814Z,0.60
2023-03-27T00:09:06.798Z,1.00
2023-03-27T00:10:06.758Z,0.60
2023-03-27T00:11:06.786Z,0.50
2023-03-27T00:12:06.739Z,0.70
2023-03-27T00:13:06.707Z,0.60
2023-03-27T00:14:06.877Z,1.30
2023-03-27T00:15:06.739Z,1.00
2023-03-27T00:16:06.702Z,0.50
2023-03-27T00:17:06.674Z,0.70
2023-03-27T00:18:06.789Z,0.70
2023-03-27T00:19:06.754Z,0.80
2023-03-27T00:20:06.687Z,0.60
2023-03-27T00:21:06.655Z,0.50
2023-03-27T00:22:06.647Z,0.60
2023-03-27T00:23:06.649Z,0.60
2023-03-27T00:24:06.635Z,0.80
2023-03-27T00:25:06.635Z,0.50
2023-03-27T00:26:06.621Z,0.60
2023-03-27T00:27:06.580Z,0.50
2023-03-27T00:28:06.592Z,0.50
2023-03-27T00:29:06.662Z,0.90
2023-03-27T00:30:06.809Z,0.60
2023-03-27T00:31:06.585Z,0.60
2023-03-27T00:32:06.599Z,0.60
2023-03-27T00:33:06.553Z,0.70
2023-03-27T00:34:06.553Z,0.90
2023-03-27T00:35:06.564Z,0.70
2023-03-27T00:36:06.759Z,0.60
2023-03-27T00:37:06.456Z,0.80
2023-03-27T00:38:06.475Z,1.00
2023-03-27T00:39:06.482Z,0.70
2023-03-27T00:40:06.486Z,0.70
2023-03-27T00:41:06.485Z,0.70
2023-03-27T00:42:06.544Z,0.70
2023-03-27T00:43:06.516Z,0.60
2023-03-27T00:44:06.430Z,1.80
2023-03-27T00:45:06.427Z,0.80
2023-03-27T00:46:06.443Z,1.20
2023-03-27T00:47:06.375Z,0.50
2023-03-27T00:48:06.446Z,0.50
2023-03-27T00:49:06.372Z,0.80
2023-03-27T00:50:06.453Z,0.60
2023-03-27T00:51:06.376Z,0.80
2023-03-27T00:52:06.395Z,0.70
2023-03-27T00:53:06.326Z,0.70
2023-03-27T00:54:06.352Z,0.70
2023-03-27T00:55:06.351Z,1.00
2023-03-27T00:56:06.384Z,0.50
2023-03-27T00:57:06.341Z,1.10
2023-03-27T00:58:06.287Z,0.80
2023-03-27T00:59:06.318Z,0.80
2023-03-27T01:00:07.631Z,0.70
2023-03-27T01:01:06.265Z,0.90
2023-03-27T01:02:06.298Z,0.80
2023-03-27T01:03:06.448Z,0.80
2023-03-27T01:04:06.307Z,0.60
2023-03-27T01:05:06.247Z,0.80
2023-03-27T01:06:06.271Z,0.60
2023-03-27T01:07:06.444Z,0.60
2023-03-27T01:08:06.203Z,1.00
2023-03-27T01:09:06.164Z,0.80
2023-03-27T01:10:06.218Z,0.70
2023-03-27T01:11:06.207Z,0.90
2023-03-27T01:12:06.245Z,1.80
2023-03-27T01:13:06.159Z,1.60
2023-03-27T01:14:06.108Z,1.10
2023-03-27T01:15:06.210Z,0.60
2023-03-27T01:16:06.132Z,1.40
2023-03-27T01:17:06.122Z,0.60
2023-03-27T01:18:06.152Z,0.60
2023-03-27T01:19:06.161Z,0.60
2023-03-27T01:20:06.067Z,1.30
2023-03-27T01:21:06.144Z,0.70
2023-03-27T01:22:06.089Z,0.60
2023-03-27T01:23:06.058Z,1.00
2023-03-27T01:24:06.072Z,0.50
2023-03-27T01:25:05.985Z,0.50
2023-03-27T01:26:06.045Z,0.70
2023-03-27T01:27:06.042Z,0.90
2023-03-27T01:28:06.225Z,0.80
2023-03-27T01:29:06.016Z,0.60
2023-03-27T01:30:06.096Z,0.60
2023-03-27T01:31:05.986Z,0.70
2023-03-27T01:32:05.976Z,0.80
2023-03-27T01:33:05.955Z,1.00
2023-03-27T01:34:05.910Z,0.90
2023-03-27T01:35:05.896Z,0.70
2023-03-27T01:36:05.907Z,1.00
2023-03-27T01:37:05.864Z,0.70
2023-03-27T01:38:05.951Z,0.70
2023-03-27T01:39:05.861Z,0.50
2023-03-27T01:40:05.841Z,1.10
2023-03-27T01:41:05.842Z,1.00
2023-03-27T01:42:05.882Z,0.70
2023-03-27T01:43:05.820Z,0.90
2023-03-27T01:44:05.870Z,0.50
2023-03-27T01:45:05.878Z,0.80
2023-03-27T01:46:05.788Z,0.70
2023-03-27T01:47:05.794Z,0.70
2023-03-27T01:48:06.038Z,1.00
2023-03-27T01:49:05.832Z,0.70
2023-03-27T01:50:05.787Z,0.80
2023-03-27T01:51:05.834Z,0.80
2023-03-27T01:52:05.830Z,0.60
2023-03-27T01:53:05.726Z,0.80
2023-03-27T01:54:05.763Z,1.30
2023-03-27T01:55:05.748Z,0.90
2023-03-27T01:56:05.762Z,0.50
2023-03-27T01:57:05.726Z,0.70
2023-03-27T01:58:05.705Z,0.60
2023-03-27T01:59:05.794Z,0.70
2023-03-27T02:00:18.497Z,0.50
2023-03-27T02:01:05.950Z,1.20
2023-03-27T02:02:05.635Z,1.10
2023-03-27T02:03:05.661Z,0.60
2023-03-27T02:04:05.667Z,1.20
2023-03-27T02:05:05.697Z,0.70
2023-03-27T02:06:05.652Z,0.70
2023-03-27T02:07:05.577Z,0.70
2023-03-27T02:08:05.587Z,0.60
2023-03-27T02:09:05.816Z,0.60
2023-03-27T02:10:05.558Z,0.80
2023-03-27T02:11:05.568Z,0.70
2023-03-27T02:12:05.526Z,0.60
2023-03-27T02:13:05.595Z,0.90
2023-03-27T02:14:05.591Z,0.80
2023-03-27T02:15:23.861Z,1.00
2023-03-27T02:16:05.596Z,0.60
2023-03-27T02:17:05.454Z,0.60
2023-03-27T02:18:05.789Z,0.60
2023-03-27T02:19:05.510Z,0.80
2023-03-27T02:20:05.514Z,0.70
2023-03-27T02:21:05.435Z,0.70
2023-03-27T02:22:05.457Z,0.50
2023-03-27T02:23:05.430Z,0.60
2023-03-27T02:24:05.420Z,0.70
2023-03-27T02:25:05.428Z,0.70
2023-03-27T02:26:05.406Z,0.60
2023-03-27T02:27:05.417Z,0.90
2023-03-27T02:28:05.386Z,0.80
2023-03-27T02:29:05.350Z,0.60
2023-03-27T02:30:05.619Z,0.60
2023-03-27T02:31:31.919Z,0.80
2023-03-27T02:32:05.484Z,0.70
2023-03-27T02:33:05.434Z,1.00
2023-03-27T02:34:05.602Z,0.60
2023-03-27T02:35:05.366Z,0.60
2023-03-27T02:36:05.418Z,0.70
2023-03-27T02:37:05.327Z,0.70
2023-03-27T02:38:05.281Z,0.90
2023-03-27T02:39:05.267Z,0.60
2023-03-27T02:40:05.286Z,0.80
2023-03-27T02:41:05.281Z,0.40
2023-03-27T02:42:05.363Z,0.70
2023-03-27T02:43:05.220Z,1.30
2023-03-27T02:44:05.212Z,0.90
2023-03-27T02:45:05.230Z,0.60
2023-03-27T02:46:05.271Z,1.50
2023-03-27T02:47:05.251Z,1.20
2023-03-27T02:48:05.231Z,0.50
2023-03-27T02:49:05.152Z,0.70
2023-03-27T02:50:05.178Z,0.70
2023-03-27T02:51:05.152Z,1.00
2023-03-27T02:52:05.164Z,0.90
2023-03-27T02:53:05.106Z,1.10
2023-03-27T02:54:05.135Z,0.60
2023-03-27T02:55:05.131Z,0.70
2023-03-27T02:56:05.091Z,0.80
2023-03-27T02:57:05.221Z,0.70
2023-03-27T02:58:05.079Z,0.50
2023-03-27T02:59:05.099Z,1.10
2023-03-27T03:00:05.086Z,0.80
2023-03-27T03:01:05.188Z,0.50
2023-03-27T03:02:05.124Z,0.60
2023-03-27T03:03:05.249Z,0.60
2023-03-27T03:04:05.084Z,1.10
2023-03-27T03:05:05.026Z,0.90
2023-03-27T03:06:05.017Z,0.80
2023-03-27T03:07:05.180Z,1.00
2023-03-27T03:08:05.037Z,0.50
2023-03-27T03:09:05.038Z,0.70
2023-03-27T03:10:05.030Z,0.70
2023-03-27T03:11:05.251Z,0.60
2023-03-27T03:12:05.022Z,0.60
2023-03-27T03:13:05.202Z,0.70
2023-03-27T03:14:05.151Z,0.70
2023-03-27T03:15:04.984Z,0.70
2023-03-27T03:16:05.005Z,0.60
2023-03-27T03:17:05.079Z,0.50
2023-03-27T03:18:05.205Z,0.60
2023-03-27T03:19:05.157Z,0.80
2023-03-27T03:20:04.993Z,0.60
2023-03-27T03:21:04.878Z,0.70
2023-03-27T03:22:05.022Z,0.70
2023-03-27T03:23:05.023Z,1.00
2023-03-27T03:24:05.001Z,0.90
2023-03-27T03:25:05.019Z,0.60
2023-03-27T03:26:04.843Z,0.60
2023-03-27T03:27:05.017Z,0.60
2023-03-27T03:28:04.975Z,0.80
2023-03-27T03:29:04.843Z,0.60
2023-03-27T03:30:05.001Z,0.80
2023-03-27T03:31:05.040Z,0.70
2023-03-27T03:32:04.942Z,0.70
2023-03-27T03:33:04.975Z,0.60
2023-03-27T03:34:04.890Z,0.50
2023-03-27T03:35:04.789Z,0.60
2023-03-27T03:36:05.163Z,0.70
2023-03-27T03:37:04.972Z,0.90
2023-03-27T03:38:04.928Z,0.60
2023-03-27T03:39:04.879Z,0.60
2023-03-27T03:40:05.018Z,0.40
2023-03-27T03:41:05.090Z,0.60
2023-03-27T03:42:04.915Z,0.80
2023-03-27T03:43:04.804Z,0.50
2023-03-27T03:44:05.007Z,0.50
2023-03-27T03:45:05.025Z,0.70
2023-03-27T03:46:04.972Z,0.50
2023-03-27T03:47:04.738Z,1.10
2023-03-27T03:48:04.841Z,0.50
2023-03-27T03:49:05.062Z,0.50
2023-03-27T03:50:05.743Z,0.70
2023-03-27T03:51:04.735Z,0.50
2023-03-27T03:52:05.021Z,0.70
2023-03-27T03:53:05.027Z,0.70
2023-03-27T03:54:05.058Z,0.90
2023-03-27T03:55:04.874Z,0.50
2023-03-27T03:56:04.846Z,0.60
2023-03-27T03:57:04.756Z,0.60
2023-03-27T03:58:04.560Z,0.60
2023-03-27T03:59:04.688Z,0.50
2023-03-27T04:00:05.356Z,0.50
2023-03-27T04:01:04.433Z,0.60
2023-03-27T04:02:04.551Z,1.10
2023-03-27T04:03:04.792Z,0.50
2023-03-27T04:04:04.470Z,0.60
2023-03-27T04:05:08.426Z,0.60
2023-03-27T04:06:08.531Z,1.30
2023-03-27T04:07:04.436Z,0.70
2023-03-27T04:08:04.531Z,0.70
2023-03-27T04:09:09.318Z,0.90
2023-03-27T04:10:04.348Z,0.60
2023-03-27T04:11:04.366Z,0.60
2023-03-27T04:12:04.441Z,0.60
2023-03-27T04:13:04.462Z,0.80
2023-03-27T04:14:04.297Z,0.90
2023-03-27T04:15:04.300Z,0.50
2023-03-27T04:16:04.374Z,0.70
2023-03-27T04:17:04.315Z,0.80
2023-03-27T04:18:04.441Z,0.80
2023-03-27T04:19:04.284Z,0.60
2023-03-27T04:20:04.248Z,0.50
2023-03-27T04:21:04.267Z,1.00
2023-03-27T04:22:05.275Z,0.80
2023-03-27T04:23:04.238Z,0.60
2023-03-27T04:24:04.197Z,0.60
2023-03-27T04:25:04.205Z,0.50
2023-03-27T04:26:04.276Z,0.70
2023-03-27T04:27:04.157Z,1.00
2023-03-27T04:28:04.920Z,0.60
2023-03-27T04:29:04.224Z,0.50
2023-03-27T04:30:04.142Z,0.70
2023-03-27T04:31:04.153Z,0.50
2023-03-27T04:32:04.183Z,0.50
2023-03-27T04:33:06.303Z,0.60
2023-03-27T04:34:04.094Z,0.90
2023-03-27T04:35:04.101Z,0.70
2023-03-27T04:36:06.340Z,0.70
2023-03-27T04:37:04.089Z,0.70
2023-03-27T04:38:04.106Z,0.60
2023-03-27T04:39:04.180Z,1.00
2023-03-27T04:40:04.080Z,0.60
2023-03-27T04:41:04.079Z,0.70
2023-03-27T04:42:04.080Z,0.60
2023-03-27T04:43:04.167Z,0.90
2023-03-27T04:44:03.992Z,0.60
2023-03-27T04:45:04.025Z,0.50
2023-03-27T04:46:03.991Z,0.70
2023-03-27T04:47:05.412Z,0.90
2023-03-27T04:48:04.057Z,0.60
2023-03-27T04:49:03.939Z,0.80
2023-03-27T04:50:03.956Z,0.60
2023-03-27T04:51:04.057Z,0.70
2023-03-27T04:52:05.008Z,0.60
2023-03-27T04:53:03.862Z,0.60
2023-03-27T04:54:03.940Z,0.70
2023-03-27T04:55:03.851Z,0.60
2023-03-27T04:56:03.884Z,0.70
2023-03-27T04:57:03.907Z,0.70
2023-03-27T04:58:03.823Z,0.70
2023-03-27T04:59:03.870Z,0.80
2023-03-27T05:00:03.819Z,0.50
2023-03-27T05:01:03.827Z,0.60
2023-03-27T05:02:03.777Z,0.60
2023-03-27T05:03:03.884Z,0.50
2023-03-27T05:04:03.900Z,0.60
2023-03-27T05:05:03.757Z,0.70
2023-03-27T05:06:03.790Z,1.20
2023-03-27T05:07:03.741Z,0.60
2023-03-27T05:08:03.813Z,0.60
2023-03-27T05:09:03.768Z,0.90
2023-03-27T05:10:03.710Z,0.70
2023-03-27T05:11:03.880Z,0.60
2023-03-27T05:12:03.716Z,0.50
2023-03-27T05:13:03.758Z,0.70
2023-03-27T05:14:03.736Z,0.60
2023-03-27T05:15:03.821Z,0.50
2023-03-27T05:16:03.855Z,1.00
2023-03-27T05:17:03.919Z,0.90
2023-03-27T05:18:03.846Z,0.90
2023-03-27T05:19:04.084Z,0.60
2023-03-27T05:20:03.708Z,0.70
2023-03-27T05:21:03.579Z,0.50
2023-03-27T05:22:03.574Z,0.80
2023-03-27T05:23:03.681Z,0.60
2023-03-27T05:24:03.718Z,0.90
2023-03-27T05:25:03.540Z,0.70
2023-03-27T05:26:03.537Z,0.70
2023-03-27T05:27:03.562Z,0.80
2023-03-27T05:28:03.543Z,0.50
2023-03-27T05:29:03.516Z,0.80
2023-03-27T05:30:03.536Z,0.70
2023-03-27T05:31:03.572Z,0.70
2023-03-27T05:32:03.472Z,1.00
2023-03-27T05:33:03.527Z,0.80
2023-03-27T05:34:03.464Z,0.40
2023-03-27T05:35:03.562Z,0.50
2023-03-27T05:36:03.445Z,0.70
2023-03-27T05:37:03.428Z,0.70
2023-03-27T05:38:03.392Z,0.70
2023-03-27T05:39:03.595Z,0.50
2023-03-27T05:40:03.689Z,0.80
2023-03-27T05:41:03.816Z,1.00
2023-03-27T05:42:03.606Z,0.60
2023-03-27T05:43:03.348Z,0.70
2023-03-27T05:44:03.358Z,1.10
2023-03-27T05:45:03.356Z,0.90
2023-03-27T05:46:03.385Z,0.70
2023-03-27T05:47:03.375Z,0.70
2023-03-27T05:48:03.382Z,0.50
2023-03-27T05:49:03.297Z,0.80
2023-03-27T05:50:03.295Z,0.60
2023-03-27T05:51:03.301Z,0.90
2023-03-27T05:52:03.405Z,0.80
2023-03-27T05:53:03.311Z,0.60
2023-03-27T05:54:03.286Z,0.80
2023-03-27T05:55:08.286Z,0.60
2023-03-27T05:56:03.749Z,0.90
2023-03-27T05:57:03.284Z,1.20
2023-03-27T05:58:03.286Z,0.60
2023-03-27T05:59:03.210Z,0.60
2023-03-27T06:00:03.191Z,0.70
2023-03-27T06:01:03.171Z,1.00
2023-03-27T06:02:03.266Z,0.60
2023-03-27T06:03:03.288Z,0.60
2023-03-27T06:04:03.345Z,0.50
2023-03-27T06:05:03.182Z,0.50
2023-03-27T06:06:03.161Z,1.10
2023-03-27T06:07:03.109Z,0.50
2023-03-27T06:08:03.133Z,0.90
2023-03-27T06:09:03.099Z,1.00
2023-03-27T06:10:03.345Z,0.90
2023-03-27T06:11:03.107Z,0.60
2023-03-27T06:12:03.055Z,0.60
2023-03-27T06:13:03.105Z,0.80
2023-03-27T06:14:03.055Z,0.40
2023-03-27T06:15:03.075Z,0.70
2023-03-27T06:16:03.122Z,0.90
2023-03-27T06:17:03.023Z,0.80
2023-03-27T06:18:03.061Z,0.80
2023-03-27T06:19:03.026Z,0.60
2023-03-27T06:20:03.152Z,1.10
2023-03-27T06:21:02.981Z,0.70
2023-03-27T06:22:02.958Z,1.00
2023-03-27T06:23:02.958Z,1.20
2023-03-27T06:24:02.963Z,0.70
2023-03-27T06:25:03.016Z,0.80
2023-03-27T06:26:02.960Z,1.10
2023-03-27T06:27:02.933Z,0.60
2023-03-27T06:28:02.918Z,0.60
2023-03-27T06:29:07.948Z,1.10
2023-03-27T06:30:03.057Z,1.10
2023-03-27T06:31:02.940Z,0.60
2023-03-27T06:32:02.860Z,0.60
2023-03-27T06:33:02.868Z,1.10
2023-03-27T06:34:02.992Z,1.60
2023-03-27T06:35:02.844Z,0.50
2023-03-27T06:36:02.886Z,0.60
2023-03-27T06:37:02.886Z,1.00
2023-03-27T06:38:02.867Z,0.60
2023-03-27T06:39:02.821Z,0.70
2023-03-27T06:40:02.834Z,0.60
2023-03-27T06:41:02.835Z,0.80
2023-03-27T06:42:02.778Z,0.80
2023-03-27T06:43:02.752Z,1.30
2023-03-27T06:44:02.763Z,0.60
2023-03-27T06:45:02.753Z,0.70
2023-03-27T06:46:02.775Z,0.70
2023-03-27T06:47:02.766Z,0.70
2023-03-27T06:48:17.997Z,0.90
2023-03-27T06:49:02.796Z,0.90
2023-03-27T06:50:02.899Z,0.80
2023-03-27T06:51:02.678Z,0.90
2023-03-27T06:52:02.822Z,0.90
2023-03-27T06:53:04.258Z,0.60
2023-03-27T06:54:02.642Z,0.80
2023-03-27T06:55:02.651Z,0.70
2023-03-27T06:56:02.646Z,0.80
2023-03-27T06:57:02.650Z,0.60
2023-03-27T06:58:02.650Z,1.40
2023-03-27T06:59:02.860Z,0.80
2023-03-27T07:00:02.862Z,0.90
2023-03-27T07:01:02.600Z,0.70
2023-03-27T07:02:02.693Z,0.80
2023-03-27T07:03:02.583Z,0.60
2023-03-27T07:04:02.752Z,1.10
2023-03-27T07:05:05.123Z,0.80
2023-03-27T07:06:02.963Z,0.80
2023-03-27T07:07:02.737Z,0.60
2023-03-27T07:08:14.865Z,0.80
2023-03-27T07:09:02.503Z,0.70
2023-03-27T07:10:02.495Z,0.70
2023-03-27T07:11:11.503Z,0.70
2023-03-27T07:12:02.483Z,0.60
2023-03-27T07:13:02.506Z,0.50
2023-03-27T07:14:02.483Z,0.80
2023-03-27T07:15:02.430Z,0.70
2023-03-27T07:16:02.461Z,0.70
2023-03-27T07:17:02.433Z,0.70
2023-03-27T07:18:02.453Z,0.50
2023-03-27T07:19:02.781Z,0.60
2023-03-27T07:20:02.394Z,0.60
2023-03-27T07:21:02.393Z,0.70
2023-03-27T07:22:02.365Z,0.60
2023-03-27T07:23:02.363Z,0.60
2023-03-27T07:24:02.388Z,0.80
2023-03-27T07:25:02.366Z,0.60
2023-03-27T07:26:02.312Z,0.70
2023-03-27T07:27:02.468Z,0.70
2023-03-27T07:28:04.291Z,0.50
2023-03-27T07:29:02.385Z,0.70
2023-03-27T07:30:02.283Z,0.50
2023-03-27T07:31:02.583Z,0.60
2023-03-27T07:32:06.307Z,0.80
2023-03-27T07:33:02.353Z,0.70
2023-03-27T07:34:02.722Z,1.00
2023-03-27T07:35:02.226Z,0.90
2023-03-27T07:36:02.254Z,0.90
2023-03-27T07:37:02.313Z,0.60
2023-03-27T07:38:02.206Z,0.60
2023-03-27T07:39:02.218Z,0.60
2023-03-27T07:40:02.157Z,0.90
2023-03-27T07:41:02.167Z,0.70
2023-03-27T07:42:02.169Z,0.70
2023-03-27T07:43:02.168Z,0.60
2023-03-27T07:44:02.130Z,0.90
2023-03-27T07:45:04.384Z,1.70
2023-03-27T07:46:02.185Z,0.80
2023-03-27T07:47:02.169Z,0.70
2023-03-27T07:48:02.089Z,0.60
2023-03-27T07:49:02.092Z,0.80
2023-03-27T07:50:02.105Z,0.50
2023-03-27T07:52:02.371Z,0.90
2023-03-27T07:53:02.048Z,0.90
2023-03-27T07:54:02.025Z,0.50
2023-03-27T07:55:02.030Z,0.60
2023-03-27T07:56:02.019Z,0.70
2023-03-27T07:57:02.060Z,0.50
2023-03-27T07:58:03.544Z,0.80
2023-03-27T07:59:01.990Z,0.70
2023-03-27T08:00:01.959Z,0.60
2023-03-27T08:01:02.673Z,0.50
2023-03-27T08:02:02.330Z,0.60
2023-03-27T08:03:02.147Z,0.60
2023-03-27T08:04:02.033Z,0.80
2023-03-27T08:05:02.084Z,0.80
2023-03-27T08:06:01.933Z,0.90
2023-03-27T08:07:03.125Z,0.70
2023-03-27T08:08:01.921Z,1.10
2023-03-27T08:09:02.931Z,0.70
2023-03-27T08:10:02.332Z,0.50
2023-03-27T08:11:01.878Z,0.70
2023-03-27T08:12:01.857Z,0.50
2023-03-27T08:13:01.833Z,0.70
2023-03-27T08:14:01.871Z,0.70
2023-03-27T08:15:01.809Z,0.50
2023-03-27T08:16:01.822Z,0.70
2023-03-27T08:17:14.658Z,0.50
2023-03-27T08:18:01.865Z,0.60
2023-03-27T08:19:01.906Z,0.80
2023-03-27T08:20:01.807Z,0.60
2023-03-27T08:21:01.862Z,0.90
2023-03-27T08:22:01.740Z,0.70
2023-03-27T08:23:01.742Z,1.50
2023-03-27T08:24:01.717Z,0.60
2023-03-27T08:25:01.732Z,0.60
2023-03-27T08:26:01.688Z,0.70
2023-03-27T08:27:01.708Z,0.60
2023-03-27T08:28:01.843Z,0.50
2023-03-27T08:29:01.672Z,0.60
2023-03-27T08:30:01.652Z,1.10
2023-03-27T08:31:02.623Z,0.60
2023-03-27T08:32:01.629Z,0.70
2023-03-27T08:33:01.712Z,0.70
2023-03-27T08:34:01.701Z,0.60
2023-03-27T08:35:01.595Z,0.50
2023-03-27T08:36:01.634Z,0.80
2023-03-27T08:37:01.619Z,0.50
2023-03-27T08:38:01.596Z,0.50
2023-03-27T08:39:01.584Z,0.70
2023-03-27T08:40:01.569Z,0.60
2023-03-27T08:41:01.534Z,1.30
2023-03-27T08:42:01.665Z,0.80
2023-03-27T08:43:01.516Z,0.90
2023-03-27T08:44:01.544Z,0.60
2023-03-27T08:45:01.494Z,0.60
2023-03-27T08:46:01.519Z,0.90
2023-03-27T08:47:01.467Z,1.00
2023-03-27T08:48:01.623Z,0.80
2023-03-27T08:49:01.504Z,0.60
2023-03-27T08:50:01.766Z,2.00
2023-03-27T08:51:01.522Z,1.20
2023-03-27T08:52:01.583Z,0.80
2023-03-27T08:53:01.409Z,0.50
2023-03-27T08:54:01.409Z,0.70
2023-03-27T08:55:01.391Z,1.60
2023-03-27T08:56:01.393Z,0.60
2023-03-27T08:57:01.419Z,0.80
2023-03-27T08:58:01.482Z,1.20
2023-03-27T08:59:01.349Z,5.30
2023-03-27T09:00:01.356Z,16.00
2023-03-27T09:01:01.331Z,12.20
2023-03-27T09:02:01.357Z,8.80
2023-03-27T09:03:01.428Z,9.50
2023-03-27T09:04:01.375Z,4.40
2023-03-27T09:05:01.280Z,1.90
2023-03-27T09:06:01.289Z,1.00
2023-03-27T09:07:01.277Z,1.60
2023-03-27T09:08:01.267Z,0.60
2023-03-27T09:09:01.275Z,0.80
2023-03-27T09:10:01.252Z,0.70
2023-03-27T09:11:01.365Z,1.00
2023-03-27T09:12:01.240Z,0.80
2023-03-27T09:13:01.194Z,0.80
2023-03-27T09:14:01.211Z,0.70
2023-03-27T09:15:01.230Z,0.80
2023-03-27T09:16:01.260Z,0.50
2023-03-27T09:17:01.153Z,0.70
2023-03-27T09:18:01.357Z,0.50
2023-03-27T09:19:01.126Z,0.60
2023-03-27T09:20:01.159Z,0.70
2023-03-27T09:21:01.118Z,0.70
2023-03-27T09:22:01.357Z,0.80
2023-03-27T09:23:01.108Z,0.60
2023-03-27T09:24:01.107Z,0.50
2023-03-27T09:25:01.099Z,0.90
2023-03-27T09:26:01.116Z,1.00
2023-03-27T09:27:07.092Z,0.70
2023-03-27T09:28:01.116Z,0.70
2023-03-27T09:29:01.033Z,0.60
2023-03-27T09:30:05.302Z,0.70
2023-03-27T09:31:01.188Z,0.60
2023-03-27T09:32:01.051Z,0.60
2023-03-27T09:33:01.079Z,1.00
2023-03-27T09:34:01.133Z,0.80
2023-03-27T09:35:01.011Z,0.70
2023-03-27T09:36:01.192Z,0.60
2023-03-27T09:37:00.998Z,0.90
2023-03-27T09:38:00.962Z,1.10
2023-03-27T09:39:00.945Z,0.60
2023-03-27T09:40:00.930Z,0.60
2023-03-27T09:41:00.907Z,0.90
2023-03-27T09:42:01.018Z,0.60
2023-03-27T09:43:00.958Z,0.80
2023-03-27T09:44:00.890Z,0.60
2023-03-27T09:45:00.878Z,0.60
2023-03-27T09:46:00.875Z,0.60
2023-03-27T09:47:00.880Z,0.60
2023-03-27T09:48:01.650Z,0.60
2023-03-27T09:49:00.902Z,0.60
2023-03-27T09:50:00.834Z,0.60
2023-03-27T09:51:01.076Z,1.20
2023-03-27T09:52:00.802Z,1.00
2023-03-27T09:53:00.780Z,0.60
2023-03-27T09:54:00.801Z,0.90
2023-03-27T09:55:00.801Z,1.20
2023-03-27T09:56:02.993Z,0.60
2023-03-27T09:57:00.764Z,0.50
2023-03-27T09:58:00.933Z,0.70
2023-03-27T09:59:00.776Z,0.80
2023-03-27T10:00:00.727Z,0.60
2023-03-27T10:01:00.708Z,0.90
2023-03-27T10:02:00.690Z,0.60
2023-03-27T10:03:00.836Z,0.50
2023-03-27T10:04:00.770Z,0.50
2023-03-27T10:05:01.118Z,0.60
2023-03-27T10:06:00.668Z,0.80
2023-03-27T10:07:00.794Z,1.00
2023-03-27T10:08:00.876Z,0.90
2023-03-27T10:09:00.798Z,0.90
2023-03-27T10:10:00.715Z,0.80
2023-03-27T10:11:00.716Z,0.80
2023-03-27T10:12:00.611Z,0.90
2023-03-27T10:13:00.628Z,0.80
2023-03-27T10:14:00.818Z,0.50
2023-03-27T10:15:01.514Z,0.60
2023-03-27T10:16:00.637Z,1.20
2023-03-27T10:17:00.607Z,0.90
2023-03-27T10:18:00.734Z,0.70
2023-03-27T10:19:00.852Z,1.00
2023-03-27T10:20:00.588Z,0.80
2023-03-27T10:21:00.517Z,0.90
2023-03-27T10:22:00.574Z,1.00
2023-03-27T10:23:00.624Z,0.80
2023-03-27T10:24:00.477Z,0.80
2023-03-27T10:25:00.445Z,0.70
2023-03-27T10:26:00.453Z,0.70
2023-03-27T10:27:00.487Z,0.70
2023-03-27T10:28:00.478Z,0.40
2023-03-27T10:29:00.487Z,0.70
2023-03-27T10:30:00.394Z,0.70
2023-03-27T10:31:00.406Z,0.70
2023-03-27T10:32:00.594Z,0.70
2023-03-27T10:33:00.556Z,0.70
2023-03-27T10:34:00.361Z,0.70
2023-03-27T10:35:00.357Z,0.80
2023-03-27T10:36:00.372Z,0.60
2023-03-27T10:37:00.312Z,0.80
2023-03-27T10:38:00.483Z,0.40
2023-03-27T10:39:00.310Z,0.70
2023-03-27T10:40:00.345Z,0.50
2023-03-27T10:41:00.281Z,0.40
2023-03-27T10:42:00.632Z,0.50
2023-03-27T10:43:00.372Z,0.50
2023-03-27T10:44:00.276Z,0.50
2023-03-27T10:45:00.272Z,0.50
2023-03-27T10:46:00.319Z,0.50
2023-03-27T10:47:00.276Z,0.70
2023-03-27T10:48:00.387Z,0.30
2023-03-27T10:49:00.214Z,0.30
2023-03-27T10:50:00.197Z,0.40
2023-03-27T10:51:00.176Z,1.00
2023-03-27T10:52:00.483Z,0.90
2023-03-27T10:53:00.248Z,1.60
2023-03-27T10:54:00.257Z,0.70
2023-03-27T10:55:00.372Z,0.60
2023-03-27T10:56:00.181Z,1.00
2023-03-27T10:57:00.279Z,0.90
2023-03-27T10:58:00.163Z,0.60
2023-03-27T10:59:00.114Z,0.80
2023-03-27T11:00:00.166Z,0.80
2023-03-27T11:01:00.516Z,0.40
2023-03-27T11:02:00.165Z,0.30
2023-03-27T11:03:00.141Z,1.00
2023-03-27T11:04:00.132Z,0.40
2023-03-27T11:05:00.089Z,0.30
2023-03-27T11:06:00.033Z,0.50
2023-03-27T11:07:00.019Z,0.30
2023-03-27T11:08:00.009Z,0.40
2023-03-27T11:09:00.004Z,0.40
2023-03-27T11:10:00.039Z,0.40
2023-03-27T11:11:00.054Z,0.50
2023-03-27T11:12:00.119Z,0.50
2023-03-27T11:12:59.955Z,0.50
2023-03-27T11:14:00.556Z,0.50
2023-03-27T11:14:59.930Z,0.60
2023-03-27T11:15:59.936Z,0.70
2023-03-27T11:16:59.919Z,0.70
2023-03-27T11:17:59.929Z,0.70
2023-03-27T11:18:59.881Z,0.60
2023-03-27T11:19:59.902Z,0.70
2023-03-27T11:21:02.536Z,0.60
2023-03-27T11:21:59.866Z,0.60
2023-03-27T11:22:59.857Z,0.70
2023-03-27T11:23:59.998Z,0.50
2023-03-27T11:24:59.908Z,0.60
2023-03-27T11:25:59.913Z,0.60
2023-03-27T11:26:59.808Z,0.90
2023-03-27T11:27:59.817Z,1.00
2023-03-27T11:28:59.839Z,0.50
2023-03-27T11:30:00.004Z,0.40
2023-03-27T11:31:00.105Z,1.20
2023-03-27T11:31:59.801Z,0.60
2023-03-27T11:33:00.205Z,0.30
2023-03-27T11:33:59.732Z,0.30
2023-03-27T11:35:01.322Z,0.50
2023-03-27T11:35:59.854Z,0.40
2023-03-27T11:36:59.730Z,0.70
2023-03-27T11:38:00.138Z,0.30
2023-03-27T11:38:59.862Z,0.30
2023-03-27T11:39:59.710Z,0.30
2023-03-27T11:40:59.876Z,0.30
2023-03-27T11:41:59.735Z,0.50
2023-03-27T11:42:59.646Z,0.30
2023-03-27T11:43:59.631Z,0.40
2023-03-27T11:44:59.870Z,1.60
2023-03-27T11:45:59.629Z,0.40
2023-03-27T11:46:59.615Z,0.90
2023-03-27T11:47:59.662Z,0.40
2023-03-27T11:48:59.568Z,0.40
2023-03-27T11:49:59.591Z,0.60
2023-03-27T11:50:59.626Z,0.50
2023-03-27T11:51:59.623Z,0.50
2023-03-27T11:52:59.741Z,0.70
2023-03-27T11:53:59.520Z,0.40
2023-03-27T11:54:59.500Z,0.70
2023-03-27T11:55:59.584Z,0.60
2023-03-27T11:56:59.502Z,0.60
2023-03-27T11:57:59.536Z,0.60
2023-03-27T11:58:59.509Z,0.60
2023-03-27T11:59:59.514Z,0.60
2023-03-27T12:00:59.509Z,0.60
2023-03-27T12:01:59.497Z,0.60
2023-03-27T12:02:59.589Z,0.60
2023-03-27T12:03:59.698Z,0.40
2023-03-27T12:04:59.395Z,0.40
2023-03-27T12:05:59.601Z,0.70
2023-03-27T12:07:04.353Z,0.40
2023-03-27T12:07:59.392Z,0.50
2023-03-27T12:08:59.920Z,0.40
2023-03-27T12:09:59.353Z,0.50
2023-03-27T12:10:59.530Z,0.40
2023-03-27T12:11:59.343Z,0.40
2023-03-27T12:12:59.315Z,0.60
2023-03-27T12:14:02.138Z,0.60
2023-03-27T12:14:59.298Z,0.40
2023-03-27T12:15:59.321Z,0.40
2023-03-27T12:16:59.272Z,0.40
2023-03-27T12:17:59.300Z,0.50
2023-03-27T12:19:06.016Z,0.50
2023-03-27T12:19:59.334Z,0.70
2023-03-27T12:20:59.242Z,0.70
2023-03-27T12:21:59.263Z,0.70
2023-03-27T12:22:59.209Z,0.70
2023-03-27T12:23:59.204Z,0.50
2023-03-27T12:25:00.149Z,0.80
2023-03-27T12:25:59.348Z,0.50
2023-03-27T12:26:59.223Z,0.50
2023-03-27T12:27:59.325Z,0.70
2023-03-27T12:28:59.171Z,0.70
2023-03-27T12:29:59.172Z,0.60
2023-03-27T12:30:59.261Z,0.60
2023-03-27T12:31:59.243Z,0.70
2023-03-27T12:33:00.351Z,0.80
2023-03-27T12:33:59.113Z,0.70
2023-03-27T12:34:59.081Z,0.50
2023-03-27T12:35:59.135Z,0.50
2023-03-27T12:36:59.464Z,0.70
2023-03-27T12:37:59.052Z,0.60
2023-03-27T12:38:59.077Z,0.40
2023-03-27T12:39:59.116Z,0.60
2023-03-27T12:40:59.264Z,0.80
2023-03-27T12:41:59.034Z,0.40
2023-03-27T12:42:59.019Z,0.40
2023-03-27T12:43:59.049Z,0.50
2023-03-27T12:45:00.076Z,0.30
2023-03-27T12:45:58.995Z,0.20
2023-03-27T12:46:59.016Z,0.40
2023-03-27T12:47:59.004Z,1.00
2023-03-27T12:48:58.978Z,0.40
2023-03-27T12:49:58.952Z,0.40
2023-03-27T12:50:59.168Z,0.30
2023-03-27T12:51:58.910Z,0.40
2023-03-27T12:52:59.028Z,0.30
2023-03-27T12:53:59.582Z,0.30
2023-03-27T12:54:58.898Z,0.40
2023-03-27T12:55:58.868Z,0.30
2023-03-27T12:56:58.985Z,0.40
2023-03-27T12:57:59.202Z,0.30
2023-03-27T12:58:58.840Z,0.30
2023-03-27T12:59:59.121Z,0.40
2023-03-27T13:00:59.283Z,0.40
2023-03-27T13:01:58.870Z,0.70
2023-03-27T13:02:58.885Z,0.60
2023-03-27T13:03:58.886Z,0.60
2023-03-27T13:04:59.108Z,0.50
2023-03-27T13:05:58.774Z,0.80
2023-03-27T13:06:58.753Z,0.80
2023-03-27T13:07:59.133Z,0.60
2023-03-27T13:08:58.746Z,0.40
2023-03-27T13:09:58.749Z,0.60
2023-03-27T13:10:58.920Z,0.60
2023-03-27T13:11:58.692Z,0.60
2023-03-27T13:12:58.735Z,0.50
2023-03-27T13:13:59.093Z,0.40
2023-03-27T13:14:58.693Z,0.30
2023-03-27T13:15:59.012Z,0.40
2023-03-27T13:16:58.676Z,0.70
2023-03-27T13:17:58.697Z,0.40
2023-03-27T13:18:58.665Z,0.60